Terminal Aerodrome Forecast
Issued by NWS

Home | Current Version | Previous Version | Text Only | Print | Product List | Glossary On
Versions: 1 2 3 4 5 6 7 8 9 10 11 12 13
000
FTUS44 KTSA 201200 AAA
TAFMLC
TAF AMD
KMLC 201208Z 2012/2112 19006KT P6SM VCSH BKN090 OVC110
     FM201500 20011G18KT P6SM BKN060
     FM210000 17005KT P6SM BKN200=

USA.gov is the U.S. government's official web portal to all federal, state and local government web resources and services.